Time;durP1;ratioP1;P1;durP2;ratioP2;P2;SDS_P1;SDS_P2;PMS_P1;PMS_P2;Temp;Humidity;BMP_temperature;BMP_pressure;BME280_temperature;BME280_humidity;BME280_pressure;Samples;Min_cycle;Max_cycle;Signal;HPM_P1;HPM_P2
2021/05/20 00:00:10;;;;;;;5.75;3.67;;;;;;;10.37;87.66;102052.78;5114280;28;20084;-48
2021/05/20 00:02:38;;;;;;;5.55;3.92;;;;;;;10.33;87.57;102046.91;5114511;28;20555;-44
2021/05/20 00:05:10;;;;;;;5.75;3.70;;;;;;;10.32;87.52;102042.44;5114661;28;20456;-43
2021/05/20 00:07:38;;;;;;;6.97;4.35;;;;;;;10.29;87.43;102040.16;5113948;28;20047;-47
2021/05/20 00:10:07;;;;;;;4.90;3.60;;;;;;;10.28;87.57;102046.84;5114521;28;20110;-44
2021/05/20 00:12:35;;;;;;;8.48;3.92;;;;;;;10.27;87.74;102054.38;5114559;28;20039;-41
2021/05/20 00:15:03;;;;;;;6.10;3.88;;;;;;;10.28;87.67;102049.66;5113811;28;20077;-42
2021/05/20 00:17:31;;;;;;;4.90;3.33;;;;;;;10.28;87.87;102046.84;5103166;28;20055;-45
2021/05/20 00:20:00;;;;;;;6.75;3.72;;;;;;;10.29;87.88;102046.59;5113808;28;20051;-45
2021/05/20 00:22:29;;;;;;;6.45;3.42;;;;;;;10.33;87.95;102044.09;5114310;28;20507;-46
2021/05/20 00:25:00;;;;;;;4.32;3.05;;;;;;;10.35;87.82;102044.69;5114211;28;20440;-43
2021/05/20 00:27:27;;;;;;;4.22;2.47;;;;;;;10.37;87.92;102045.25;5113610;28;20064;-42
2021/05/20 00:29:55;;;;;;;6.32;3.03;;;;;;;10.40;87.90;102052.22;5114036;28;20044;-43
2021/05/20 00:32:23;;;;;;;4.20;2.38;;;;;;;10.41;87.61;102054.75;5114388;28;20473;-42
2021/05/20 00:34:51;;;;;;;4.68;3.10;;;;;;;10.42;87.75;102050.00;5113641;28;20373;-42
2021/05/20 00:37:19;;;;;;;4.40;2.80;;;;;;;10.43;87.67;102057.28;5114057;28;20043;-44
2021/05/20 00:39:46;;;;;;;3.67;2.47;;;;;;;10.44;87.68;102048.63;5110410;28;20105;-45
2021/05/20 00:42:14;;;;;;;5.30;2.80;;;;;;;10.46;87.65;102045.56;5113475;28;20104;-43
2021/05/20 00:44:53;;;;;;;4.57;2.67;;;;;;;10.43;87.49;102044.16;5113309;28;20051;-44
2021/05/20 00:47:20;;;;;;;4.68;2.45;;;;;;;10.39;87.42;102045.00;5103983;28;20047;-44
2021/05/20 00:49:48;;;;;;;3.28;2.15;;;;;;;10.37;87.38;102053.63;5113203;28;20122;-44
2021/05/20 00:52:15;;;;;;;3.45;2.10;;;;;;;10.35;87.20;102053.06;5113793;28;20047;-47
2021/05/20 00:54:44;;;;;;;4.05;2.30;;;;;;;10.32;87.28;102053.59;5113077;28;20564;-45
2021/05/20 00:57:14;;;;;;;7.18;3.00;;;;;;;10.29;87.20;102056.91;5113020;28;20658;-44
2021/05/20 00:59:42;;;;;;;3.88;2.90;;;;;;;10.25;87.07;102066.91;5113621;28;20072;-46
2021/05/20 01:02:10;;;;;;;5.63;2.97;;;;;;;10.21;87.08;102065.75;5113078;28;20047;-45
2021/05/20 01:04:38;;;;;;;7.15;3.40;;;;;;;10.21;87.33;102071.34;5113428;28;20040;-48
2021/05/20 01:07:06;;;;;;;5.55;3.25;;;;;;;10.22;87.31;102067.44;5112666;28;20159;-46
2021/05/20 01:09:35;;;;;;;5.63;2.72;;;;;;;10.25;87.30;102076.13;5112512;28;20036;-44
2021/05/20 01:12:04;;;;;;;5.90;3.47;;;;;;;10.28;87.35;102074.75;5113441;28;20066;-45
2021/05/20 01:14:37;;;;;;;4.78;2.30;;;;;;;10.30;87.32;102066.97;5111992;28;20036;-43
2021/05/20 01:17:05;;;;;;;5.60;2.80;;;;;;;10.31;87.29;102071.44;5112964;28;20056;-46
2021/05/20 01:19:35;;;;;;;4.05;2.17;;;;;;;10.32;87.12;102079.53;5113213;28;20277;-44
2021/05/20 01:22:04;;;;;;;3.85;2.38;;;;;;;10.30;87.04;102075.31;5113046;28;20062;-44
2021/05/20 01:24:32;;;;;;;5.90;2.58;;;;;;;10.27;87.21;102073.91;5112639;28;20377;-44
2021/05/20 01:27:01;;;;;;;5.63;2.90;;;;;;;10.27;87.02;102079.50;5113117;28;20035;-40
2021/05/20 01:29:29;;;;;;;4.70;2.90;;;;;;;10.25;87.12;102078.06;5112886;28;20088;-46
2021/05/20 01:31:56;;;;;;;4.13;2.60;;;;;;;10.23;87.02;102071.91;5102855;28;20071;-44
2021/05/20 01:34:24;;;;;;;4.85;2.97;;;;;;;10.22;87.01;102075.81;5112808;28;20100;-45
2021/05/20 01:36:51;;;;;;;5.93;3.22;;;;;;;10.20;86.88;102076.06;5112996;28;20055;-44
2021/05/20 01:39:20;;;;;;;5.97;3.65;;;;;;;10.19;86.88;102079.97;5112437;28;20067;-41
2021/05/20 01:41:47;;;;;;;5.82;3.70;;;;;;;10.17;86.88;102076.59;5112583;28;20051;-48
2021/05/20 01:44:14;;;;;;;5.45;3.40;;;;;;;10.18;86.90;102089.44;5112319;28;20055;-43
2021/05/20 01:46:42;;;;;;;5.63;2.88;;;;;;;10.16;86.70;102080.50;5112384;28;20125;-43
2021/05/20 01:49:11;;;;;;;4.13;3.25;;;;;;;10.16;86.84;102082.44;5112601;28;20043;-41
2021/05/20 01:51:39;;;;;;;6.60;3.60;;;;;;;10.14;86.61;102081.88;5112034;28;20438;-43
2021/05/20 01:54:07;;;;;;;6.17;4.30;;;;;;;10.12;86.54;102076.56;5112514;28;20047;-44
2021/05/20 01:56:36;;;;;;;5.82;3.90;;;;;;;10.10;86.55;102069.56;5112206;28;20077;-44
2021/05/20 01:59:05;;;;;;;8.30;4.18;;;;;;;10.06;86.37;102076.78;5111993;28;20044;-45
2021/05/20 02:01:33;;;;;;;7.30;4.35;;;;;;;10.02;86.53;102074.50;5112377;28;20043;-47
2021/05/20 02:04:01;;;;;;;6.35;3.78;;;;;;;10.01;86.44;102069.19;5112211;28;20048;-46
2021/05/20 02:06:28;;;;;;;6.10;3.58;;;;;;;9.99;86.39;102066.66;5111865;28;20047;-44
2021/05/20 02:09:00;;;;;;;4.18;2.63;;;;;;;9.98;86.40;102066.97;5112173;28;20048;-41
2021/05/20 02:11:28;;;;;;;6.15;3.33;;;;;;;9.97;86.39;102066.13;5112236;28;20040;-44
2021/05/20 02:13:56;;;;;;;4.40;3.47;;;;;;;9.97;86.48;102071.69;5111515;28;20089;-44
2021/05/20 02:16:23;;;;;;;6.63;3.13;;;;;;;9.97;86.41;102068.06;5111945;28;20597;-41
2021/05/20 02:18:51;;;;;;;4.43;2.80;;;;;;;9.94;86.30;102061.06;5112169;28;20048;-47
2021/05/20 02:21:18;;;;;;;5.90;3.28;;;;;;;9.92;86.21;102074.44;5111281;28;20397;-42
2021/05/20 02:23:45;;;;;;;6.38;3.22;;;;;;;9.90;86.46;102065.50;5111900;28;20420;-44
2021/05/20 02:26:13;;;;;;;6.68;3.45;;;;;;;9.86;86.26;102058.75;5111888;28;20120;-41
2021/05/20 02:28:41;;;;;;;7.20;3.60;;;;;;;9.85;86.39;102072.97;5111295;28;20035;-45
2021/05/20 02:31:09;;;;;;;5.18;3.10;;;;;;;9.83;86.46;102064.84;5111968;28;20093;-40
2021/05/20 02:33:37;;;;;;;5.32;3.08;;;;;;;9.80;86.47;102064.53;5111081;28;20635;-45
2021/05/20 02:36:05;;;;;;;5.65;3.17;;;;;;;9.77;86.54;102065.94;5111905;28;20493;-44
2021/05/20 02:38:32;;;;;;;5.38;2.95;;;;;;;9.76;86.44;102057.84;5111518;28;20121;-43
2021/05/20 02:41:00;;;;;;;4.78;3.40;;;;;;;9.75;86.58;102064.53;5099814;28;20051;-41
2021/05/20 02:43:27;;;;;;;5.63;3.50;;;;;;;9.74;86.49;102055.31;5111494;28;20063;-44
2021/05/20 02:45:54;;;;;;;6.30;3.33;;;;;;;9.72;86.53;102057.53;5111857;28;20458;-43
2021/05/20 02:48:23;;;;;;;5.45;2.72;;;;;;;9.69;86.52;102060.84;5110993;28;20496;-45
2021/05/20 02:50:50;;;;;;;5.97;3.63;;;;;;;9.67;86.66;102061.09;5111693;28;20075;-43
2021/05/20 02:53:18;;;;;;;8.05;4.03;;;;;;;9.65;86.78;102049.38;5111569;28;20055;-46
2021/05/20 02:55:45;;;;;;;5.35;3.03;;;;;;;9.64;86.79;102052.41;5110580;28;20048;-44
2021/05/20 02:58:16;;;;;;;5.85;2.92;;;;;;;9.62;86.68;102062.97;5111563;28;20503;-41
2021/05/20 03:00:46;;;;;;;5.57;3.42;;;;;;;9.59;86.92;102055.97;5112058;28;20055;-40
2021/05/20 03:03:14;;;;;;;4.47;3.03;;;;;;;9.57;86.89;102044.28;5111114;28;20043;-44
2021/05/20 03:05:42;;;;;;;4.80;3.10;;;;;;;9.55;86.79;102040.09;5111402;28;20071;-43
2021/05/20 03:08:11;;;;;;;6.28;3.80;;;;;;;9.52;86.85;102041.44;5111193;28;20089;-44
2021/05/20 03:10:38;;;;;;;7.38;3.67;;;;;;;9.50;86.96;102040.88;5110613;28;20558;-42
2021/05/20 03:13:06;;;;;;;4.70;3.60;;;;;;;9.46;86.83;102045.28;5111605;28;20048;-44
2021/05/20 03:15:33;;;;;;;5.68;3.17;;;;;;;9.43;86.96;102036.59;5109576;28;20448;-45
2021/05/20 03:18:00;;;;;;;7.55;4.18;;;;;;;9.39;87.06;102038.25;5111177;28;20035;-48
2021/05/20 03:20:28;;;;;;;6.53;3.95;;;;;;;9.35;87.05;102037.94;5109800;28;20044;-46
2021/05/20 03:22:56;;;;;;;8.48;3.50;;;;;;;9.33;87.13;102046.53;5110477;28;20462;-45
2021/05/20 03:25:24;;;;;;;6.25;3.90;;;;;;;9.29;87.26;102044.53;5111003;28;20412;-42
2021/05/20 03:27:51;;;;;;;5.80;3.30;;;;;;;9.26;87.26;102048.69;5111204;28;20147;-43
2021/05/20 03:30:20;;;;;;;4.20;3.10;;;;;;;9.25;87.30;102046.16;5113476;28;20105;-42
2021/05/20 03:32:47;;;;;;;7.50;4.15;;;;;;;9.24;87.24;102041.69;5115139;28;20059;-45
2021/05/20 03:35:14;;;;;;;4.95;3.03;;;;;;;9.22;87.13;102047.50;5114408;28;20457;-46
2021/05/20 03:37:42;;;;;;;5.03;3.20;;;;;;;9.19;87.44;102048.03;5113958;28;20047;-42
2021/05/20 03:40:11;;;;;;;4.72;2.88;;;;;;;9.20;87.05;102051.66;5114537;28;20075;-47
2021/05/20 03:42:38;;;;;;;6.25;4.18;;;;;;;9.20;87.33;102049.72;5110960;28;20093;-46
2021/05/20 03:45:07;;;;;;;5.05;4.20;;;;;;;9.23;87.49;102048.34;5114724;28;20044;-45
2021/05/20 03:47:34;;;;;;;5.53;3.30;;;;;;;9.24;87.45;102041.69;5114787;28;20439;-44
2021/05/20 03:50:02;;;;;;;4.20;3.28;;;;;;;9.26;87.55;102047.84;5114760;28;20039;-45
2021/05/20 03:52:29;;;;;;;5.53;3.90;;;;;;;9.27;87.49;102046.75;5114419;28;20052;-45
2021/05/20 03:54:57;;;;;;;3.95;2.60;;;;;;;9.27;87.86;102052.31;5114873;28;20047;-42
2021/05/20 03:57:25;;;;;;;6.15;3.63;;;;;;;9.27;87.50;102055.94;5114969;28;20055;-45
2021/05/20 03:59:53;;;;;;;5.15;3.42;;;;;;;9.29;87.54;102053.72;5114061;28;20043;-43
2021/05/20 04:02:22;;;;;;;5.25;2.70;;;;;;;9.33;87.52;102054.91;5114916;28;20377;-43
2021/05/20 04:04:49;;;;;;;6.32;3.60;;;;;;;9.35;87.61;102059.38;5114319;28;20047;-44
2021/05/20 04:07:16;;;;;;;5.82;3.63;;;;;;;9.36;87.67;102064.69;5114724;28;20047;-44
2021/05/20 04:09:44;;;;;;;6.18;3.50;;;;;;;9.38;87.51;102061.63;5114552;28;20079;-44
2021/05/20 04:12:12;;;;;;;4.93;3.03;;;;;;;9.38;87.56;102058.84;5113829;28;20040;-45
2021/05/20 04:14:40;;;;;;;4.93;3.55;;;;;;;9.39;87.59;102055.81;5114306;28;20378;-43
2021/05/20 04:17:08;;;;;;;8.15;4.03;;;;;;;9.41;87.78;102055.50;5113958;28;20047;-44
2021/05/20 04:19:35;;;;;;;4.65;3.35;;;;;;;9.43;87.78;102070.03;5113778;28;20425;-47
2021/05/20 04:22:03;;;;;;;7.75;3.72;;;;;;;9.47;87.89;102062.84;5114143;28;20047;-45
2021/05/20 04:24:30;;;;;;;4.57;2.85;;;;;;;9.50;87.85;102067.88;5114501;28;20043;-40
2021/05/20 04:26:58;;;;;;;5.13;2.97;;;;;;;9.54;87.80;102066.25;5113163;28;20450;-42
2021/05/20 04:29:25;;;;;;;4.38;3.00;;;;;;;9.56;87.78;102066.84;5114079;28;20104;-44
2021/05/20 04:31:53;;;;;;;5.97;3.50;;;;;;;9.58;87.72;102054.34;5114081;28;20048;-42
2021/05/20 04:34:20;;;;;;;4.70;3.50;;;;;;;9.62;87.92;102057.41;5109978;28;20051;-41
2021/05/20 04:36:48;;;;;;;5.72;3.55;;;;;;;9.66;87.60;102067.78;5113862;28;20048;-48
2021/05/20 04:39:15;;;;;;;5.78;3.80;;;;;;;9.70;87.72;102070.88;5113807;28;20051;-44
2021/05/20 04:41:43;;;;;;;6.03;4.28;;;;;;;9.73;87.81;102075.94;5111995;28;20058;-41
2021/05/20 04:44:10;;;;;;;7.43;4.10;;;;;;;9.76;87.68;102074.56;5113683;28;20060;-44
2021/05/20 04:46:37;;;;;;;6.43;4.43;;;;;;;9.79;87.21;102074.84;5112535;28;20046;-43
2021/05/20 04:49:11;;;;;;;6.70;4.20;;;;;;;9.81;87.67;102083.78;5113201;28;20048;-42
2021/05/20 04:51:39;;;;;;;4.80;3.83;;;;;;;9.84;87.81;102083.28;5113445;28;20062;-43
2021/05/20 04:54:06;;;;;;;4.43;3.70;;;;;;;9.87;87.90;102081.91;5113131;28;20039;-42
2021/05/20 04:56:34;;;;;;;8.52;4.63;;;;;;;9.88;87.75;102083.59;5113078;27;20067;-44
2021/05/20 04:59:02;;;;;;;5.78;4.60;;;;;;;9.88;87.61;102078.84;5113577;28;20079;-46
2021/05/20 05:01:29;;;;;;;6.28;4.60;;;;;;;9.89;87.56;102086.13;5113031;28;20044;-41
2021/05/20 05:03:57;;;;;;;5.03;4.22;;;;;;;9.90;87.57;102081.38;5113386;28;20913;-44
2021/05/20 05:06:26;;;;;;;7.13;4.30;;;;;;;9.92;87.51;102082.81;5113575;28;20109;-43
2021/05/20 05:08:53;;;;;;;5.35;4.65;;;;;;;9.93;87.30;102086.44;5112628;28;20047;-47
2021/05/20 05:11:21;;;;;;;6.90;5.40;;;;;;;9.96;87.41;102083.13;5113160;28;20051;-41
2021/05/20 05:13:48;;;;;;;7.88;5.03;;;;;;;9.99;87.39;102086.19;5113452;28;20397;-45
2021/05/20 05:16:15;;;;;;;6.53;3.97;;;;;;;10.03;87.23;102084.56;5112920;28;20151;-46
2021/05/20 05:18:43;;;;;;;5.38;3.80;;;;;;;10.05;87.19;102077.88;5113066;28;20039;-44
2021/05/20 05:21:10;;;;;;;5.32;4.13;;;;;;;10.04;87.15;102074.25;5113206;28;20516;-43
2021/05/20 05:23:39;;;;;;;6.22;3.72;;;;;;;10.03;87.02;102078.13;5112050;28;20911;-45
2021/05/20 05:26:06;;;;;;;6.05;4.63;;;;;;;10.01;86.95;102078.41;5109990;28;20043;-44
2021/05/20 05:28:34;;;;;;;6.75;4.63;;;;;;;9.98;86.81;102081.75;5113052;28;20048;-42
2021/05/20 05:31:01;;;;;;;6.22;4.72;;;;;;;9.98;86.96;102076.16;5112058;28;20057;-42
2021/05/20 05:33:29;;;;;;;5.50;4.70;;;;;;;10.01;86.95;102077.56;5112878;28;20043;-47
2021/05/20 05:35:56;;;;;;;5.63;4.20;;;;;;;10.02;86.96;102074.50;5112618;28;20067;-42
2021/05/20 05:38:23;;;;;;;5.70;4.30;;;;;;;10.06;86.96;102068.41;5111042;28;20082;-47
2021/05/20 05:40:52;;;;;;;5.13;4.45;;;;;;;10.06;86.90;102074.81;5110329;28;20369;-47
2021/05/20 05:43:19;;;;;;;6.22;5.05;;;;;;;10.06;86.75;102072.03;5111816;28;20442;-44
2021/05/20 05:45:46;;;;;;;5.60;4.45;;;;;;;10.05;86.47;102081.50;5112493;28;20390;-48
2021/05/20 05:48:14;;;;;;;6.00;5.40;;;;;;;9.98;86.34;102078.97;5112408;28;20050;-46
2021/05/20 05:50:41;;;;;;;5.65;4.00;;;;;;;9.96;86.51;102070.03;5111723;28;20405;-45
2021/05/20 05:53:27;;;;;;;6.43;4.95;;;;;;;10.02;86.63;102071.72;5112265;28;20506;-46
2021/05/20 05:55:55;;;;;;;5.10;4.40;;;;;;;10.16;86.40;102071.28;5112050;28;20061;-45
2021/05/20 05:58:23;;;;;;;6.88;4.63;;;;;;;10.26;86.26;102077.81;5111822;28;20058;-42
2021/05/20 06:00:50;;;;;;;6.80;5.50;;;;;;;10.34;86.23;102087.63;5112080;28;20043;-46
2021/05/20 06:03:18;;;;;;;6.97;4.90;;;;;;;10.39;85.84;102081.25;5111812;28;20051;-43
2021/05/20 06:05:47;;;;;;;5.07;4.18;;;;;;;10.45;85.78;102086.59;5111624;28;20055;-41
2021/05/20 06:08:14;;;;;;;7.45;4.35;;;;;;;10.52;85.67;102087.22;5112372;28;20450;-42
2021/05/20 06:10:42;;;;;;;6.20;4.95;;;;;;;10.58;85.39;102088.09;5111552;28;20047;-44
2021/05/20 06:13:10;;;;;;;6.10;4.53;;;;;;;10.64;85.32;102090.63;5111586;28;20128;-45
2021/05/20 06:15:37;;;;;;;5.47;3.72;;;;;;;10.70;85.24;102086.75;5111643;28;20036;-44
2021/05/20 06:18:05;;;;;;;6.85;4.10;;;;;;;10.77;85.01;102105.25;5112353;28;20048;-45
2021/05/20 06:20:32;;;;;;;6.97;4.30;;;;;;;10.76;84.72;102096.03;5111168;28;20496;-46
2021/05/20 06:23:00;;;;;;;7.72;4.20;;;;;;;10.74;84.55;102091.81;5112092;28;20138;-42
2021/05/20 06:25:27;;;;;;;5.38;4.05;;;;;;;10.78;84.70;102093.81;5110990;28;20057;-43
2021/05/20 06:27:55;;;;;;;6.68;3.58;;;;;;;10.88;84.72;102087.41;5110324;28;20039;-45
2021/05/20 06:30:23;;;;;;;6.57;3.75;;;;;;;11.10;84.96;102082.50;5110230;28;20374;-44
2021/05/20 06:32:51;;;;;;;7.25;3.42;;;;;;;11.38;84.60;102081.22;5111526;28;20456;-42
2021/05/20 06:35:18;;;;;;;6.85;5.05;;;;;;;11.53;83.60;102078.44;5111623;28;20097;-45
2021/05/20 06:37:45;;;;;;;7.80;5.60;;;;;;;11.71;83.34;102079.88;5111417;28;20071;-43
2021/05/20 06:40:14;;;;;;;8.32;5.15;;;;;;;11.96;82.98;102082.75;5110577;28;20096;-43
2021/05/20 06:42:41;;;;;;;7.13;4.32;;;;;;;12.21;82.32;102083.84;5111153;28;20085;-47
2021/05/20 06:45:10;;;;;;;6.72;3.70;;;;;;;12.36;81.18;102090.31;5111579;28;20043;-46
2021/05/20 06:47:39;;;;;;;5.07;4.20;;;;;;;12.43;80.66;102093.63;5110984;28;20067;-49
2021/05/20 06:50:10;;;;;;;7.50;4.10;;;;;;;12.53;80.37;102092.78;5111243;28;20573;-44
2021/05/20 06:52:37;;;;;;;5.93;4.73;;;;;;;12.73;80.17;102087.16;5111362;28;20104;-44
2021/05/20 06:55:06;;;;;;;4.93;3.83;;;;;;;12.88;79.35;102088.22;5108906;28;20055;-44
2021/05/20 07:00:16;;;;;;;5.97;3.17;;;;;;;13.12;77.87;102075.25;5110432;28;20101;-47
2021/05/20 07:02:46;;;;;;;5.45;3.20;;;;;;;13.15;77.07;102077.53;5099073;28;20089;-45
2021/05/20 07:05:13;;;;;;;5.35;3.50;;;;;;;13.29;77.39;102074.94;5110512;28;20128;-43
2021/05/20 07:07:41;;;;;;;4.35;2.80;;;;;;;13.47;76.52;102071.47;5106659;28;20040;-42
2021/05/20 07:10:11;;;;;;;4.60;2.80;;;;;;;13.62;75.92;102073.31;5111003;28;20047;-44
2021/05/20 07:12:38;;;;;;;4.95;3.25;;;;;;;13.72;75.04;102070.47;5110745;28;20043;-45
2021/05/20 07:15:07;;;;;;;4.63;2.78;;;;;;;13.71;74.48;102068.78;5111051;28;20043;-44
2021/05/20 07:17:34;;;;;;;3.90;2.53;;;;;;;13.69;74.14;102062.63;5110835;28;20028;-46
2021/05/20 07:20:03;;;;;;;3.67;2.28;;;;;;;13.85;74.10;102063.34;5111104;28;20079;-42
2021/05/20 07:22:32;;;;;;;9.20;3.45;;;;;;;14.02;73.65;102063.78;5110292;28;20078;-44
2021/05/20 07:25:02;;;;;;;4.65;2.58;;;;;;;14.15;72.90;102054.72;5109602;28;20048;-45
2021/05/20 07:27:30;;;;;;;4.90;2.45;;;;;;;14.23;71.75;102064.44;5111249;28;20130;-42
2021/05/20 07:29:58;;;;;;;2.67;1.58;;;;;;;14.20;71.11;102056.59;5110253;28;20051;-45
2021/05/20 07:32:26;;;;;;;3.83;2.20;;;;;;;14.25;71.11;102054.59;5111005;28;20059;-44
2021/05/20 07:34:58;;;;;;;4.20;2.20;;;;;;;14.37;71.26;102045.81;5110767;28;20039;-48
2021/05/20 07:37:26;;;;;;;4.18;1.70;;;;;;;14.44;69.81;102044.34;5110236;28;20122;-45
2021/05/20 07:39:54;;;;;;;3.88;2.20;;;;;;;14.55;69.23;102042.28;5110572;28;20078;-45
2021/05/20 07:42:21;;;;;;;2.92;1.92;;;;;;;14.70;68.63;102038.44;5099797;28;20035;-42
2021/05/20 07:44:54;;;;;;;3.50;1.50;;;;;;;14.84;67.55;102045.03;5108906;28;20064;-45
2021/05/20 07:47:22;;;;;;;4.35;1.50;;;;;;;14.86;65.94;102036.28;5110648;28;20047;-42
2021/05/20 07:49:50;;;;;;;3.65;1.83;;;;;;;14.93;66.63;102033.97;5110367;28;20081;-44
2021/05/20 07:52:19;;;;;;;4.45;1.88;;;;;;;14.94;65.11;102044.06;5110691;28;20055;-43
2021/05/20 07:54:47;;;;;;;2.97;1.50;;;;;;;15.07;64.27;102048.97;5110566;28;20047;-43
2021/05/20 07:57:15;;;;;;;3.35;1.50;;;;;;;15.20;64.54;102044.56;5110178;28;20047;-48
2021/05/20 07:59:42;;;;;;;4.15;1.48;;;;;;;15.30;63.06;102041.63;5110633;28;20047;-46
2021/05/20 08:02:14;;;;;;;3.65;1.65;;;;;;;15.31;63.11;102046.97;5110692;28;20051;-45
2021/05/20 08:04:44;;;;;;;;;;;;;;;15.33;63.05;102039.06;5110751;28;20377;-45
2021/05/20 08:07:28;;;;;;;3.50;1.30;;;;;;;15.40;62.93;102042.31;5110767;28;19920;-46
2021/05/20 08:12:42;;;;;;;5.55;1.55;;;;;;;15.22;63.00;102033.84;5078788;28;20039;-46
2021/05/20 08:15:10;;;;;;;2.78;1.48;;;;;;;15.18;63.71;102030.84;5111786;28;20040;-44
2021/05/20 08:17:38;;;;;;;2.45;1.15;;;;;;;15.20;63.10;102038.94;5114188;28;20052;-47
2021/05/20 08:20:07;;;;;;;2.17;1.20;;;;;;;15.18;62.89;102030.84;5109952;28;20096;-42
2021/05/20 08:22:37;;;;;;;3.28;1.20;;;;;;;15.21;63.77;102029.38;5114135;28;20043;-44
2021/05/20 08:25:09;;;;;;;4.95;1.55;;;;;;;15.37;64.04;102028.88;5113517;28;20401;-46
2021/05/20 08:27:37;;;;;;;3.30;1.23;;;;;;;15.56;63.66;102026.09;5103782;28;20078;-45
2021/05/20 08:30:07;;;;;;;3.22;1.23;;;;;;;15.71;63.03;102022.22;5113859;28;20050;-45
2021/05/20 08:32:35;;;;;;;4.55;1.27;;;;;;;15.84;62.82;102015.78;5113647;28;20048;-47
2021/05/20 08:35:03;;;;;;;2.80;1.35;;;;;;;15.96;62.02;102013.34;5113492;27;20043;-44
2021/05/20 08:37:30;;;;;;;2.63;0.98;;;;;;;16.06;61.32;102012.31;5113596;28;20040;-46
2021/05/20 08:39:59;;;;;;;3.47;0.90;;;;;;;16.04;60.23;102009.81;5111764;28;20393;-44
2021/05/20 08:42:27;;;;;;;2.33;0.85;;;;;;;16.08;59.68;102004.41;5113870;28;20047;-45
2021/05/20 08:44:54;;;;;;;3.13;1.25;;;;;;;16.25;60.12;102009.44;5113693;28;20105;-46
2021/05/20 08:47:22;;;;;;;5.25;1.35;;;;;;;16.35;59.53;102009.28;5112965;28;20044;-48
2021/05/20 08:49:50;;;;;;;3.35;0.88;;;;;;;16.38;58.85;102006.69;5113508;28;20059;-46
2021/05/20 08:52:18;;;;;;;2.28;0.88;;;;;;;16.37;58.50;102004.19;5113426;28;20051;-45
2021/05/20 08:54:48;;;;;;;2.28;0.90;;;;;;;16.39;58.69;102010.31;5102223;28;20048;-44
2021/05/20 08:57:15;;;;;;;2.53;0.98;;;;;;;16.48;57.76;102006.47;5113529;28;20134;-46
2021/05/20 08:59:45;;;;;;;3.15;1.10;;;;;;;16.50;57.66;102011.81;5113328;28;20504;-44
2021/05/20 09:02:22;;;;;;;4.38;1.05;;;;;;;16.47;57.84;102007.63;5112819;28;20047;-49
2021/05/20 09:05:00;;;;;;;2.65;1.17;;;;;;;16.54;57.81;102010.03;5113441;28;20047;-45
2021/05/20 09:07:30;;;;;;;3.15;1.05;;;;;;;16.60;57.47;102011.59;5112307;28;20043;-46
2021/05/20 09:10:08;;;;;;;2.45;0.93;;;;;;;16.69;56.11;102014.56;5113184;27;20052;-44
2021/05/20 09:12:36;;;;;;;4.78;1.20;;;;;;;16.68;56.55;101995.97;5113063;28;20035;-44
2021/05/20 09:15:14;;;;;;;7.97;1.00;;;;;;;16.74;56.23;101995.56;5112730;28;20055;-43
2021/05/20 09:17:41;;;;;;;3.35;1.20;;;;;;;16.64;57.53;102001.41;5111750;28;20454;-44
2021/05/20 09:20:10;;;;;;;4.18;1.10;;;;;;;16.69;57.47;101998.50;5112819;28;20482;-44
2021/05/20 09:22:37;;;;;;;2.58;1.05;;;;;;;16.69;57.76;101992.00;5102621;28;20069;-47
2021/05/20 09:25:07;;;;;;;3.95;1.13;;;;;;;16.59;57.34;101987.38;5112829;28;20117;-47
2021/05/20 09:27:36;;;;;;;3.70;1.23;;;;;;;16.60;57.32;101996.66;5112147;28;20488;-45
2021/05/20 09:30:09;;;;;;;3.25;1.15;;;;;;;16.67;57.23;101985.84;5112237;28;20079;-47
2021/05/20 09:32:38;;;;;;;2.45;1.10;;;;;;;16.74;57.66;101989.94;5109765;28;20047;-46
2021/05/20 09:35:06;;;;;;;3.85;1.38;;;;;;;16.77;57.70;101989.31;5112972;28;20497;-46
2021/05/20 09:37:45;;;;;;;4.30;1.33;;;;;;;16.90;58.08;101981.16;5110773;28;20136;-43
2021/05/20 09:40:13;;;;;;;4.15;1.02;;;;;;;16.90;57.25;101981.97;5112829;28;20052;-46
2021/05/20 09:42:42;;;;;;;1.95;1.00;;;;;;;16.88;57.77;101984.28;5111610;28;20129;-46
2021/05/20 09:45:11;;;;;;;3.35;1.10;;;;;;;16.91;57.09;101972.38;5100915;28;20063;-49
2021/05/20 09:47:40;;;;;;;3.13;1.10;;;;;;;16.95;56.98;101964.97;5110559;28;20073;-44
2021/05/20 09:50:10;;;;;;;3.00;0.90;;;;;;;17.12;55.94;101970.78;5110350;28;20083;-43
2021/05/20 09:52:37;;;;;;;3.47;0.98;;;;;;;17.23;54.38;101965.72;5110206;28;20055;-45
2021/05/20 09:55:20;;;;;;;3.92;1.17;;;;;;;17.23;53.00;101946.81;5111178;28;20039;-43
2021/05/20 09:57:48;;;;;;;2.90;0.95;;;;;;;17.45;53.87;101956.47;5110150;27;20078;-44
2021/05/20 10:00:17;;;;;;;2.28;1.13;;;;;;;17.70;52.18;101960.69;5111119;28;20043;-47
2021/05/20 10:02:46;;;;;;;3.08;1.35;;;;;;;17.75;52.16;101952.94;5111767;28;20043;-44
2021/05/20 10:05:26;;;;;;;3.97;1.50;;;;;;;17.72;52.76;101952.75;5110633;28;20067;-48
2021/05/20 10:07:53;;;;;;;3.70;1.27;;;;;;;17.84;52.52;101956.63;5111903;28;20036;-46
2021/05/20 10:10:35;;;;;;;2.83;1.30;;;;;;;17.46;52.03;101955.31;5111342;28;20484;-48
2021/05/20 10:13:05;;;;;;;3.50;1.40;;;;;;;17.43;53.40;101944.66;5111761;28;20054;-44
2021/05/20 10:15:33;;;;;;;3.53;1.30;;;;;;;17.44;53.29;101954.78;5112073;28;20036;-45
2021/05/20 10:18:06;;;;;;;3.25;1.40;;;;;;;17.45;52.76;101951.66;5110953;28;20059;-44
2021/05/20 10:20:35;;;;;;;3.35;1.42;;;;;;;17.62;51.87;101947.31;5111678;28;20496;-44
2021/05/20 10:23:07;;;;;;;3.20;1.42;;;;;;;17.83;50.96;101949.31;5111042;28;20043;-47
2021/05/20 10:25:35;;;;;;;3.40;1.48;;;;;;;17.75;51.66;101946.44;5111100;28;20438;-44
2021/05/20 10:28:03;;;;;;;3.45;1.40;;;;;;;17.72;52.31;101947.09;5111420;28;20464;-45
2021/05/20 10:30:31;;;;;;;3.67;1.48;;;;;;;17.54;52.76;101935.66;5111381;28;20512;-44
2021/05/20 10:32:59;;;;;;;3.65;1.33;;;;;;;17.41;52.89;101933.69;5110911;28;20043;-45
2021/05/20 10:35:41;;;;;;;4.03;1.50;;;;;;;17.50;51.19;101928.13;5111302;28;20044;-45
2021/05/20 10:38:08;;;;;;;3.88;1.70;;;;;;;17.53;52.55;101921.84;5110236;27;20492;-45
2021/05/20 10:40:36;;;;;;;3.72;1.60;;;;;;;17.43;53.69;101917.28;5110796;28;20468;-46
2021/05/20 10:43:07;;;;;;;4.18;1.77;;;;;;;17.42;53.40;101911.94;5111063;28;20044;-43
2021/05/20 10:45:36;;;;;;;3.22;1.70;;;;;;;17.44;53.14;101921.78;5111440;28;20093;-43
2021/05/20 10:48:23;;;;;;;4.45;1.65;;;;;;;17.58;50.95;101914.06;5110349;28;20066;-45
2021/05/20 10:51:19;;;;;;;3.70;1.55;;;;;;;17.79;51.10;101897.47;5103827;28;20048;-47
2021/05/20 10:53:54;;;;;;;2.90;1.33;;;;;;;17.87;50.86;101905.16;5100054;28;20047;-45
2021/05/20 10:56:50;;;;;;;2.83;1.20;;;;;;;17.81;48.30;101895.16;5111131;28;20063;-50
2021/05/20 10:59:42;;;;;;;3.28;1.45;;;;;;;17.67;46.85;101883.13;5102555;28;20039;-51
2021/05/20 11:02:39;;;;;;;3.45;1.67;;;;;;;17.65;48.36;101881.78;5111131;28;20496;-45
2021/05/20 11:05:53;;;;;;;3.50;1.50;;;;;;;17.59;48.48;101872.56;5110878;28;20051;-48
2021/05/20 11:08:55;;;;;;;5.40;2.17;;;;;;;17.52;48.85;101869.38;5102796;28;20044;-43
2021/05/20 11:11:48;;;;;;;3.27;1.80;;;;;;;17.54;49.17;101867.91;5068208;28;20051;-48
2021/05/20 11:14:34;;;;;;;6.05;2.35;;;;;;;17.64;51.37;101857.50;5067476;28;20048;-45
2021/05/20 11:17:21;;;;;;;3.63;1.80;;;;;;;17.70;51.76;101859.06;5100131;28;20059;-49
2021/05/20 11:20:09;;;;;;;3.05;1.60;;;;;;;17.73;52.07;101849.94;5110847;28;20051;-50
2021/05/20 11:22:36;;;;;;;4.28;2.40;;;;;;;17.62;52.84;101840.03;5110342;28;20047;-45
2021/05/20 11:25:10;;;;;;;4.18;2.10;;;;;;;17.38;53.08;101834.75;5110869;28;20462;-43
2021/05/20 11:27:38;;;;;;;5.65;2.10;;;;;;;17.20;54.20;101833.78;5111095;28;20841;-45
2021/05/20 11:30:13;;;;;;;4.32;1.80;;;;;;;17.03;53.16;101836.47;5110291;28;20040;-48
2021/05/20 11:32:50;;;;;;;3.67;1.73;;;;;;;17.12;54.06;101820.47;5109716;28;20052;-45
2021/05/20 11:35:22;;;;;;;5.60;1.67;;;;;;;17.30;53.78;101833.53;5110302;28;20067;-47
2021/05/20 11:37:49;;;;;;;5.07;1.52;;;;;;;17.32;53.04;101821.94;5110600;28;20131;-44
2021/05/20 11:40:27;;;;;;;2.70;1.35;;;;;;;17.39;53.01;101814.66;5099677;28;20040;-49
2021/05/20 11:42:55;;;;;;;4.10;1.40;;;;;;;17.45;52.79;101810.56;5109668;28;20052;-45